Time;durP1;ratioP1;P1;durP2;ratioP2;P2;SDS_P1;SDS_P2;PMS_P1;PMS_P2;Temp;Humidity;BMP_temperature;BMP_pressure;BME280_temperature;BME280_humidity;BME280_pressure;Samples;Min_cycle;Max_cycle;Signal;HPM_P1;HPM_P2
2020/12/17 08:37:26;;;;;;;10.60;8.48;;;;;;;2.30;86.14;100170.23;1786186;80;22369;-64
2020/12/17 08:40:05;;;;;;;11.73;8.63;;;;;;;2.41;85.86;100170.72;1783207;79;21590;-65
2020/12/17 08:42:35;;;;;;;10.98;8.70;;;;;;;2.45;85.66;100166.11;1783084;80;21418;-65
2020/12/17 08:45:12;;;;;;;12.82;9.23;;;;;;;2.42;85.50;100171.20;1782679;80;21223;-68
2020/12/17 08:47:42;;;;;;;15.53;9.00;;;;;;;2.36;85.43;100166.58;1783046;79;21484;-67
2020/12/17 08:50:10;;;;;;;12.05;8.53;;;;;;;2.30;85.35;100166.32;1783107;79;20894;-66
2020/12/17 08:52:38;;;;;;;13.22;8.15;;;;;;;2.21;85.35;100165.93;1783186;80;21037;-66
2020/12/17 08:55:09;;;;;;;11.28;8.85;;;;;;;2.17;85.37;100165.31;1783108;80;21195;-66
2020/12/17 08:57:38;;;;;;;9.38;7.55;;;;;;;2.08;85.37;100166.22;1783003;80;20961;-63
2020/12/17 09:00:15;;;;;;;10.35;8.18;;;;;;;1.97;85.40;100166.16;1783166;80;20902;-63
2020/12/17 09:02:44;;;;;;;11.95;8.65;;;;;;;1.87;85.50;100161.82;1783000;80;21041;-64
2020/12/17 09:05:14;;;;;;;12.53;8.23;;;;;;;1.77;85.56;100167.84;1783007;79;21009;-65
2020/12/17 09:07:46;;;;;;;12.40;8.65;;;;;;;1.68;85.68;100168.73;1782765;80;21243;-64
2020/12/17 09:10:16;;;;;;;12.43;8.80;;;;;;;1.58;85.78;100168.73;1782847;79;21507;-64
2020/12/17 09:12:44;;;;;;;;;;;;;;;1.49;85.92;100165.30;1785607;80;20986;-64
2020/12/17 09:15:14;;;;;;;14.68;9.10;;;;;;;1.41;86.06;100165.73;1783043;80;20366;-65
2020/12/17 09:17:43;;;;;;;12.20;9.25;;;;;;;1.36;86.25;100164.22;1783073;80;21487;-64
2020/12/17 09:20:17;;;;;;;17.25;9.73;;;;;;;1.33;86.38;100166.68;1783063;80;22467;-64
2020/12/17 09:22:45;;;;;;;15.13;10.48;;;;;;;1.34;86.49;100171.47;1782971;80;21845;-64
2020/12/17 09:25:18;;;;;;;15.93;10.23;;;;;;;1.29;86.60;100168.66;1782879;80;21538;-64
2020/12/17 09:27:46;;;;;;;14.73;10.58;;;;;;;1.25;86.72;100170.22;1755761;80;21547;-65
2020/12/17 09:30:20;;;;;;;15.28;10.53;;;;;;;1.21;86.86;100163.09;1783068;79;20930;-65
2020/12/17 09:33:02;;;;;;;13.43;9.93;;;;;;;1.21;87.00;100164.41;1783057;80;21964;-65
2020/12/17 09:35:34;;;;;;;14.63;9.88;;;;;;;1.28;87.17;100168.17;1782897;79;20950;-65
2020/12/17 09:38:09;;;;;;;14.55;10.32;;;;;;;1.33;87.30;100160.59;1783110;80;21199;-65
2020/12/17 09:40:40;;;;;;;13.80;9.40;;;;;;;1.32;87.34;100159.70;1782504;80;21021;-64
2020/12/17 09:43:11;;;;;;;12.28;8.95;;;;;;;1.34;87.41;100154.58;1782762;80;21615;-65
2020/12/17 09:45:43;;;;;;;18.45;9.88;;;;;;;1.39;87.50;100150.48;1782775;80;21345;-64
2020/12/17 09:48:19;;;;;;;14.05;9.63;;;;;;;1.42;87.54;100150.62;1782725;80;21503;-65
2020/12/17 09:51:00;;;;;;;14.40;9.65;;;;;;;1.42;87.60;100149.31;1782725;80;21516;-65
2020/12/17 09:53:30;;;;;;;13.00;8.88;;;;;;;1.45;87.71;100147.78;1782799;80;21007;-64
2020/12/17 09:55:58;;;;;;;14.33;9.45;;;;;;;1.51;87.79;100153.67;1782772;80;21148;-65
2020/12/17 09:58:26;;;;;;;14.83;10.18;;;;;;;1.55;87.80;100140.88;1782747;80;21547;-65
2020/12/17 10:00:58;;;;;;;15.20;10.90;;;;;;;1.56;87.78;100143.06;1782658;80;20953;-65
2020/12/17 10:03:26;;;;;;;14.78;9.70;;;;;;;1.58;87.82;100138.83;1782807;80;21538;-66
2020/12/17 10:05:54;;;;;;;15.40;9.80;;;;;;;1.62;87.86;100139.86;1782673;80;21630;-65
2020/12/17 10:08:23;;;;;;;13.70;9.50;;;;;;;1.66;87.89;100145.27;1782837;80;21464;-66
2020/12/17 10:10:51;;;;;;;13.70;10.13;;;;;;;1.72;87.87;100140.74;1782385;80;22177;-65
2020/12/17 10:13:20;;;;;;;15.75;10.70;;;;;;;1.76;87.85;100138.34;1782603;80;21516;-66
2020/12/17 10:15:49;;;;;;;15.65;10.25;;;;;;;1.78;87.83;100136.70;1782698;80;20922;-67
2020/12/17 10:18:17;;;;;;;15.80;9.55;;;;;;;1.83;87.87;100135.19;1782687;80;20934;-66
2020/12/17 10:20:46;;;;;;;12.15;8.83;;;;;;;1.86;87.84;100137.04;1782749;80;20934;-65
2020/12/17 10:23:15;;;;;;;15.15;9.50;;;;;;;1.91;87.82;100127.75;1782755;80;21374;-65
2020/12/17 10:25:43;;;;;;;15.60;10.08;;;;;;;1.96;87.76;100129.26;1782646;80;21630;-66
2020/12/17 10:28:12;;;;;;;14.87;10.50;;;;;;;1.99;87.73;100129.39;1782761;80;21563;-65
2020/12/17 10:30:41;;;;;;;14.40;10.65;;;;;;;2.00;87.65;100129.45;1782653;80;21705;-65
2020/12/17 10:33:09;;;;;;;15.28;9.40;;;;;;;2.03;87.57;100133.91;1782795;80;21053;-65
2020/12/17 10:35:38;;;;;;;14.38;8.95;;;;;;;2.04;87.53;100129.18;1782530;80;21188;-65
2020/12/17 10:38:06;;;;;;;14.18;10.15;;;;;;;2.07;87.48;100134.10;1780394;80;21574;-65
2020/12/17 10:40:34;;;;;;;15.08;10.55;;;;;;;2.08;87.39;100131.98;1780158;80;21053;-65
2020/12/17 10:43:03;;;;;;;14.70;10.30;;;;;;;2.09;87.35;100125.06;1780459;80;21475;-66
2020/12/17 10:45:31;;;;;;;12.47;8.98;;;;;;;2.12;87.33;100127.80;1780577;80;21069;-66
2020/12/17 10:47:59;;;;;;;12.58;9.13;;;;;;;2.13;87.26;100121.34;1780459;80;21371;-66
2020/12/17 10:50:28;;;;;;;16.62;10.23;;;;;;;2.18;87.26;100125.04;1780398;80;21147;-66
2020/12/17 10:52:57;;;;;;;14.75;9.45;;;;;;;2.23;87.18;100132.16;1780550;80;21512;-65
2020/12/17 10:55:25;;;;;;;16.10;10.48;;;;;;;2.26;87.11;100127.08;1780409;80;21018;-66
2020/12/17 10:57:54;;;;;;;16.77;10.40;;;;;;;2.30;87.01;100126.38;1780436;80;20985;-66
2020/12/17 11:00:22;;;;;;;14.07;9.05;;;;;;;2.32;86.93;100122.13;1780240;80;22181;-65
2020/12/17 11:02:51;;;;;;;13.05;8.18;;;;;;;2.37;86.80;100118.03;1780409;80;20954;-65
2020/12/17 11:05:19;;;;;;;11.97;8.30;;;;;;;2.41;86.61;100125.15;1780446;80;21511;-68
2020/12/17 11:07:48;;;;;;;11.25;8.10;;;;;;;2.43;86.47;100123.08;1780573;80;21456;-66
2020/12/17 11:10:17;;;;;;;11.45;7.95;;;;;;;2.47;86.34;100121.08;1780448;80;21029;-65
2020/12/17 11:12:46;;;;;;;16.45;10.13;;;;;;;2.49;86.20;100118.13;1780404;80;22373;-65
2020/12/17 11:15:15;;;;;;;14.05;8.30;;;;;;;2.51;86.04;100119.08;1780495;80;21041;-64
2020/12/17 11:17:43;;;;;;;14.93;10.15;;;;;;;2.56;85.85;100126.19;1780501;80;21496;-63
2020/12/17 11:20:13;;;;;;;14.65;9.98;;;;;;;2.61;85.72;100127.27;1780426;80;21480;-63
2020/12/17 11:22:42;;;;;;;18.60;11.50;;;;;;;2.63;85.64;100117.80;1780451;80;20942;-63
2020/12/17 11:25:11;;;;;;;19.62;11.95;;;;;;;2.63;85.63;100116.50;1780506;80;22114;-63
2020/12/17 11:27:40;;;;;;;15.08;10.68;;;;;;;2.64;85.57;100120.88;1780335;80;21504;-64
2020/12/17 11:30:08;;;;;;;17.87;11.68;;;;;;;2.66;85.49;100119.23;1780481;80;21001;-64
2020/12/17 11:32:36;;;;;;;18.85;11.50;;;;;;;2.69;85.36;100119.35;1780487;80;21025;-63
2020/12/17 11:35:07;;;;;;;20.17;13.50;;;;;;;2.70;85.22;100115.92;1780543;80;20997;-63
2020/12/17 11:37:37;;;;;;;20.40;12.50;;;;;;;2.71;85.11;100116.39;1781473;80;22256;-64
2020/12/17 11:40:06;;;;;;;20.62;12.10;;;;;;;2.71;84.92;100119.00;1781782;80;20985;-65
2020/12/17 11:42:35;;;;;;;21.20;13.03;;;;;;;2.70;84.76;100117.22;1782309;80;21021;-65
2020/12/17 11:45:03;;;;;;;22.90;12.65;;;;;;;2.69;84.60;100115.03;1782386;80;21451;-64
2020/12/17 11:47:32;;;;;;;20.68;12.73;;;;;;;2.70;84.37;100114.62;1782380;80;21061;-64
2020/12/17 11:50:05;;;;;;;18.75;11.80;;;;;;;2.70;84.16;100116.81;1782372;80;21374;-64
2020/12/17 11:52:35;;;;;;;18.98;11.78;;;;;;;2.72;83.97;100116.45;1782314;80;21623;-64
2020/12/17 11:55:06;;;;;;;22.55;13.70;;;;;;;2.73;83.80;100114.74;1782351;80;20946;-64
2020/12/17 11:57:35;;;;;;;24.15;13.95;;;;;;;2.71;83.64;100118.59;1782264;80;21029;-65
2020/12/17 12:00:07;;;;;;;22.45;13.50;;;;;;;2.71;83.51;100113.79;1782361;80;21399;-65
2020/12/17 12:02:35;;;;;;;25.27;14.50;;;;;;;2.71;83.38;100113.79;1782544;80;21376;-64
2020/12/17 12:05:04;;;;;;;22.75;14.15;;;;;;;2.72;83.32;100111.25;1782305;80;20949;-64
2020/12/17 12:07:34;;;;;;;28.15;15.23;;;;;;;2.73;83.26;100116.05;1782389;80;20939;-64
2020/12/17 12:10:07;;;;;;;26.87;16.50;;;;;;;2.74;83.20;100117.82;1782308;80;21508;-65
2020/12/17 12:12:36;;;;;;;23.57;13.58;;;;;;;2.74;83.12;100115.22;1782331;80;21573;-63
2020/12/17 12:15:07;;;;;;;15.32;9.00;;;;;;;2.75;83.03;100115.28;1782556;80;21525;-69
2020/12/17 12:17:36;;;;;;;25.80;13.95;;;;;;;2.76;82.93;100112.26;1782087;80;20997;-65
2020/12/17 12:20:04;;;;;;;40.38;14.53;;;;;;;2.76;82.83;100115.75;1782226;80;21057;-60
2020/12/17 12:22:35;;;;;;;28.15;15.48;;;;;;;2.78;82.81;100119.72;1782239;80;21065;-65
2020/12/17 12:25:05;;;;;;;25.85;14.43;;;;;;;2.78;82.78;100119.31;1781832;80;20997;-64
2020/12/17 12:27:33;;;;;;;25.35;14.90;;;;;;;2.80;82.72;100112.86;1781031;80;21375;-64
2020/12/17 12:30:02;;;;;;;25.90;14.98;;;;;;;2.80;82.65;100111.55;1782086;80;21037;-64
2020/12/17 12:32:30;;;;;;;24.35;14.45;;;;;;;2.81;82.54;100108.12;1782319;80;20950;-64
2020/12/17 12:34:59;;;;;;;26.12;14.63;;;;;;;2.84;82.44;100112.18;1782300;80;21056;-63
2020/12/17 12:37:27;;;;;;;26.07;13.62;;;;;;;2.83;82.40;100115.58;1782111;80;20914;-64
2020/12/17 12:39:55;;;;;;;24.05;14.58;;;;;;;2.83;82.30;100115.17;1779389;80;21603;-63
2020/12/17 12:42:25;;;;;;;36.13;16.30;;;;;;;2.82;82.22;100118.60;1782264;80;21621;-63
2020/12/17 12:44:54;;;;;;;27.48;15.53;;;;;;;2.83;82.19;100117.77;1782274;80;21014;-64
2020/12/17 12:47:23;;;;;;;24.63;14.98;;;;;;;2.84;82.16;100118.28;1782262;80;21828;-64
2020/12/17 12:49:51;;;;;;;25.10;15.53;;;;;;;2.86;82.08;100120.06;1782309;80;21048;-64
2020/12/17 12:52:20;;;;;;;24.30;15.38;;;;;;;2.86;82.06;100114.44;1782290;80;21212;-64
2020/12/17 12:54:49;;;;;;;29.30;15.08;;;;;;;2.85;82.07;100116.56;1782322;80;21080;-64
2020/12/17 12:57:17;;;;;;;24.25;15.65;;;;;;;2.83;82.06;100111.67;1782257;80;21562;-64
2020/12/17 12:59:46;;;;;;;29.63;16.12;;;;;;;2.83;82.06;100116.89;1782264;80;21124;-63
2020/12/17 13:02:15;;;;;;;31.45;17.95;;;;;;;2.82;82.06;100119.91;1782362;80;20990;-64
2020/12/17 13:04:46;;;;;;;28.47;16.35;;;;;;;2.84;82.04;100118.70;1782279;80;21373;-64
2020/12/17 13:07:14;;;;;;;23.50;13.93;;;;;;;2.84;82.02;100120.00;1782291;80;21626;-64
2020/12/17 13:09:43;;;;;;;15.93;11.03;;;;;;;2.81;81.98;100115.94;1782369;80;21076;-64
2020/12/17 13:12:11;;;;;;;16.48;11.35;;;;;;;2.78;81.92;100122.33;1782340;80;21081;-64
2020/12/17 13:14:40;;;;;;;19.85;12.80;;;;;;;2.76;81.88;100122.68;1782523;80;21045;-64
2020/12/17 13:17:10;;;;;;;23.38;13.65;;;;;;;2.73;81.86;100125.16;1782322;80;22475;-65
2020/12/17 13:19:40;;;;;;;25.20;14.65;;;;;;;2.71;81.88;100121.61;1782272;80;21097;-63
2020/12/17 13:22:08;;;;;;;26.23;16.30;;;;;;;2.73;81.88;100126.47;1782547;79;20910;-63
2020/12/17 13:24:37;;;;;;;32.10;17.07;;;;;;;2.71;81.90;100127.70;1782458;80;21500;-64
2020/12/17 13:27:06;;;;;;;33.92;19.57;;;;;;;2.69;81.93;100134.98;1782426;80;21132;-64
2020/12/17 13:29:36;;;;;;;34.73;17.92;;;;;;;2.67;81.95;100132.73;1782452;80;21463;-65
2020/12/17 13:32:07;;;;;;;28.30;16.55;;;;;;;2.65;81.95;100137.88;1778448;80;21602;-65
2020/12/17 13:34:37;;;;;;;33.50;17.98;;;;;;;2.62;81.99;100133.84;1772664;80;21136;-64
2020/12/17 13:37:08;;;;;;;36.23;18.12;;;;;;;2.62;82.03;100145.98;1772857;80;21195;-64
2020/12/17 13:39:36;;;;;;;32.50;18.60;;;;;;;2.58;81.97;100146.68;1733102;81;21609;-64
2020/12/17 13:42:05;;;;;;;36.55;18.82;;;;;;;2.50;81.91;100147.25;1744735;81;22246;-65
2020/12/17 13:44:36;;;;;;;35.45;18.80;;;;;;;2.43;81.92;100142.61;1760840;81;21544;-64
2020/12/17 13:47:15;;;;;;;40.83;18.73;;;;;;;2.38;81.95;100143.25;1755108;81;21159;-64
2020/12/17 13:49:43;;;;;;;37.75;18.62;;;;;;;2.35;82.02;100145.69;1756310;81;21177;-64
2020/12/17 13:52:12;;;;;;;33.40;17.95;;;;;;;2.33;82.14;100145.63;1737680;82;21076;-63
2020/12/17 13:54:45;;;;;;;36.28;19.07;;;;;;;2.34;82.23;100145.21;1731582;82;21133;-64
2020/12/17 13:57:13;;;;;;;38.33;19.57;;;;;;;2.33;82.35;100149.94;1733511;82;21655;-64
2020/12/17 13:59:44;;;;;;;33.63;18.75;;;;;;;2.34;82.43;100150.00;1727421;81;21624;-65
2020/12/17 14:02:13;;;;;;;35.95;18.62;;;;;;;2.34;82.47;100149.11;1785022;79;21067;-64
2020/12/17 14:04:41;;;;;;;35.25;17.42;;;;;;;2.34;82.48;100153.02;1757645;81;21564;-65
2020/12/17 14:07:10;;;;;;;34.05;17.77;;;;;;;2.33;82.52;100153.44;1733900;82;21149;-64
2020/12/17 14:09:40;;;;;;;34.63;18.05;;;;;;;2.32;82.48;100151.66;1734483;82;21243;-64
2020/12/17 14:12:12;;;;;;;32.83;16.70;;;;;;;2.32;82.52;100150.35;1734068;82;21480;-63
2020/12/17 14:14:41;;;;;;;41.42;17.40;;;;;;;2.32;82.56;100149.47;1732519;82;21247;-64
2020/12/17 14:17:12;;;;;;;37.95;20.45;;;;;;;2.33;82.58;100158.64;1736481;82;20963;-63
2020/12/17 14:19:41;;;;;;;42.15;19.60;;;;;;;2.34;82.58;100160.83;1732589;82;21245;-62
2020/12/17 14:22:09;;;;;;;40.78;19.45;;;;;;;2.33;82.58;100160.36;1756810;81;21102;-62
2020/12/17 14:24:39;;;;;;;40.23;18.95;;;;;;;2.32;82.56;100155.97;1734551;82;21577;-62
2020/12/17 14:27:07;;;;;;;41.25;17.85;;;;;;;2.29;82.51;100149.33;1757574;81;21169;-63
2020/12/17 14:29:38;;;;;;;40.55;17.62;;;;;;;2.28;82.48;100150.16;1753605;81;21150;-62
2020/12/17 14:32:09;;;;;;;39.58;18.30;;;;;;;2.27;82.47;100144.47;1737051;82;21606;-63
2020/12/17 14:34:42;;;;;;;38.17;18.82;;;;;;;2.26;82.46;100151.81;1728575;82;21117;-63
2020/12/17 14:37:11;;;;;;;41.15;18.70;;;;;;;2.24;82.48;100151.74;1751409;81;20936;-63
2020/12/17 14:39:40;;;;;;;35.70;18.27;;;;;;;2.23;82.50;100159.08;1751221;81;21014;-62
2020/12/17 14:53:23;;;;;;;39.70;17.60;;;;;;;2.95;82.27;100160.82;1786201;80;22020;-66
2020/12/17 14:55:53;;;;;;;39.73;18.05;;;;;;;3.01;81.96;100156.74;1790870;80;21783;-63
2020/12/17 14:58:22;;;;;;;30.30;17.17;;;;;;;3.01;81.76;100160.66;1777468;80;21246;-63
2020/12/17 15:00:51;;;;;;;29.50;16.95;;;;;;;2.94;81.71;100163.84;1769127;81;21624;-63
2020/12/17 15:03:19;;;;;;;27.73;15.50;;;;;;;2.88;81.67;100159.69;1755000;81;21534;-64
2020/12/17 15:05:50;;;;;;;26.70;15.10;;;;;;;2.81;81.66;100164.14;1765737;81;20925;-63
2020/12/17 15:08:19;;;;;;;25.12;13.80;;;;;;;2.74;81.69;100160.81;1755512;81;21578;-66
2020/12/17 15:10:47;;;;;;;29.80;16.07;;;;;;;2.68;81.70;100167.96;1749977;81;22262;-66
2020/12/17 15:13:16;;;;;;;27.32;15.93;;;;;;;2.64;81.75;100165.16;1740622;82;21060;-68
2020/12/17 15:15:46;;;;;;;30.35;15.43;;;;;;;2.58;81.86;100161.89;1743002;81;20945;-68
2020/12/17 15:18:17;;;;;;;27.32;15.35;;;;;;;2.53;81.91;100163.01;1766404;80;21628;-70
2020/12/17 15:21:12;;;;;;;28.52;14.93;;;;;;;2.47;82.04;100161.86;1739477;81;21012;-69
2020/12/17 15:23:41;;;;;;;146.93;89.55;;;;;;;2.43;82.17;100162.14;1767969;81;21446;-70
2020/12/17 15:26:09;;;;;;;529.17;327.13;;;;;;;2.42;82.24;100161.67;1768557;81;21072;-70
2020/12/17 15:28:38;;;;;;;940.58;587.08;;;;;;;2.39;82.24;100168.05;1768477;81;21551;-70
2020/12/17 15:31:06;;;;;;;495.12;312.52;;;;;;;2.35;82.28;100166.10;1768308;81;21507;-70
2020/12/17 15:33:35;;;;;;;192.92;113.65;;;;;;;2.32;82.34;100158.16;1764795;81;21127;-71
2020/12/17 15:36:04;;;;;;;68.87;41.35;;;;;;;2.29;82.42;100167.15;1760744;81;21982;-71
2020/12/17 15:38:34;;;;;;;37.28;21.73;;;;;;;2.27;82.48;100166.19;1754516;81;21026;-71
2020/12/17 15:41:09;;;;;;;32.28;18.12;;;;;;;2.26;82.60;100169.62;1768440;81;21034;-70
2020/12/17 15:43:37;;;;;;;24.37;15.65;;;;;;;2.24;82.69;100170.38;1739489;81;21056;-68
2020/12/17 15:46:07;;;;;;;27.37;16.05;;;;;;;2.20;82.76;100166.34;1768599;81;21135;-68
2020/12/17 15:48:37;;;;;;;24.92;14.05;;;;;;;2.17;82.81;100160.11;1768543;81;21372;-68
2020/12/17 15:51:08;;;;;;;26.73;15.53;;;;;;;2.14;82.91;100162.17;1768333;81;20962;-70
2020/12/17 15:53:41;;;;;;;29.10;15.23;;;;;;;2.15;82.93;100160.05;1760398;81;21080;-66
2020/12/17 15:56:14;;;;;;;26.70;15.70;;;;;;;2.14;82.96;100158.27;1767847;81;21613;-68
2020/12/17 15:58:42;;;;;;;27.20;16.85;;;;;;;2.13;83.04;100155.59;1762478;81;21162;-68
2020/12/17 16:01:11;;;;;;;25.45;14.50;;;;;;;2.11;83.11;100156.84;1739429;81;22309;-68
2020/12/17 16:03:40;;;;;;;25.62;14.90;;;;;;;2.11;83.17;100155.95;1737417;81;21501;-68
2020/12/17 16:06:12;;;;;;;26.57;15.55;;;;;;;2.13;83.22;100159.50;1737374;81;20940;-67
2020/12/17 16:11:23;;;;;;;28.27;15.53;;;;;;;2.15;83.28;100153.95;1836970;77;22871;-68
2020/12/17 16:13:52;;;;;;;25.92;15.70;;;;;;;2.09;83.31;100158.89;1799265;78;20911;-69
2020/12/17 16:16:20;;;;;;;29.27;15.70;;;;;;;2.05;83.36;100156.57;1777232;79;21365;-69
2020/12/17 16:18:52;;;;;;;29.92;16.80;;;;;;;2.05;83.41;100162.19;1777138;79;21072;-68
2020/12/17 16:21:21;;;;;;;31.45;18.65;;;;;;;2.02;83.40;100160.75;1777392;79;21674;-68
2020/12/17 16:23:49;;;;;;;28.35;16.90;;;;;;;2.00;83.44;100155.89;1777208;80;20994;-68
2020/12/17 16:26:18;;;;;;;54.75;42.93;;;;;;;1.97;83.48;100167.05;1777203;80;21005;-62
2020/12/17 16:28:48;;;;;;;35.70;28.15;;;;;;;1.96;83.54;100161.78;1777382;79;22718;-66
2020/12/17 16:31:23;;;;;;;33.85;18.95;;;;;;;1.94;83.55;100168.22;1796238;78;21018;-66
2020/12/17 16:33:52;;;;;;;36.00;20.30;;;;;;;1.91;83.57;100172.40;1766507;81;20920;-66
2020/12/17 16:36:22;;;;;;;34.78;21.87;;;;;;;1.91;83.66;100168.50;1735661;82;21074;-66
2020/12/17 16:38:52;;;;;;;32.00;19.37;;;;;;;1.91;83.73;100178.91;1736217;82;21579;-65
2020/12/17 16:41:21;;;;;;;26.50;16.57;;;;;;;1.86;83.79;100176.95;1738715;81;22115;-66
2020/12/17 16:43:50;;;;;;;28.02;17.32;;;;;;;1.86;83.84;100178.25;1726203;82;20951;-67
2020/12/17 16:46:21;;;;;;;31.52;17.73;;;;;;;1.87;83.89;100183.94;1740338;81;20937;-65
2020/12/17 16:48:52;;;;;;;29.32;18.37;;;;;;;1.86;83.94;100190.38;1714675;82;21077;-65
2020/12/17 16:51:20;;;;;;;32.33;17.77;;;;;;;1.87;83.98;100185.65;1740029;81;21756;-67
2020/12/17 16:53:49;;;;;;;31.77;17.40;;;;;;;1.89;84.01;100191.44;1754097;81;22282;-67
2020/12/17 16:56:19;;;;;;;34.67;17.85;;;;;;;1.86;84.00;100191.27;1755082;79;21578;-68
2020/12/17 16:58:51;;;;;;;32.20;19.07;;;;;;;1.85;84.02;100188.59;1766610;79;21670;-67
2020/12/17 17:01:21;;;;;;;33.13;18.42;;;;;;;1.87;84.08;100190.85;1738553;82;21038;-69
2020/12/17 17:03:51;;;;;;;28.60;17.85;;;;;;;1.89;84.14;100192.73;1725414;82;21006;-68
2020/12/17 17:06:20;;;;;;;29.37;17.40;;;;;;;1.91;84.14;100198.42;1750179;80;21400;-68
2020/12/17 17:08:49;;;;;;;32.05;17.80;;;;;;;1.91;84.17;100190.61;1750413;80;20975;-69
2020/12/17 17:11:19;;;;;;;29.67;16.87;;;;;;;1.95;84.16;100192.12;1745851;80;21121;-69
2020/12/17 17:13:48;;;;;;;32.67;18.27;;;;;;;1.96;84.14;100194.31;1745034;80;20999;-69
2020/12/17 17:16:17;;;;;;;31.68;18.27;;;;;;;1.95;84.11;100195.12;1730910;82;21035;-69
2020/12/17 17:18:46;;;;;;;33.33;18.35;;;;;;;1.92;84.15;100194.99;1737473;82;22394;-69
2020/12/17 17:21:15;;;;;;;29.35;17.23;;;;;;;1.92;84.18;100192.39;1728000;82;21509;-71
2020/12/17 17:23:43;;;;;;;34.18;18.87;;;;;;;1.90;84.21;100189.72;1736779;82;20955;-69
2020/12/17 17:26:13;;;;;;;41.55;21.12;;;;;;;1.92;84.20;100194.99;1738188;81;20947;-68
2020/12/17 17:28:43;;;;;;;36.00;20.05;;;;;;;1.93;84.20;100198.97;1732297;81;21121;-69
2020/12/17 17:31:14;;;;;;;33.98;20.97;;;;;;;1.91;84.20;100195.81;1788139;79;21579;-69
2020/12/17 17:33:43;;;;;;;31.35;20.52;;;;;;;1.91;84.22;100194.52;1785635;79;21207;-69
2020/12/17 17:36:15;;;;;;;36.35;20.32;;;;;;;1.90;84.26;100191.02;1781616;79;20982;-69
2020/12/17 17:38:45;;;;;;;40.23;24.00;;;;;;;1.92;84.28;100193.69;1714412;81;21171;-69
2020/12/17 17:41:17;;;;;;;36.98;21.80;;;;;;;1.93;84.29;100199.38;1725453;82;20928;-69
2020/12/17 17:43:49;;;;;;;40.45;21.57;;;;;;;1.94;84.28;100205.06;1784797;78;21187;-69
2020/12/17 17:46:21;;;;;;;37.50;20.15;;;;;;;1.85;84.18;100199.89;1783157;79;21042;-68
2020/12/17 17:48:50;;;;;;;34.05;18.75;;;;;;;1.80;84.24;100200.09;1720427;82;21023;-68
2020/12/17 17:51:20;;;;;;;36.77;18.80;;;;;;;1.78;84.31;100200.84;1732349;80;21157;-69
2020/12/17 17:53:52;;;;;;;34.33;19.37;;;;;;;1.74;84.28;100195.91;1729305;82;21098;-69
2020/12/17 17:56:24;;;;;;;35.03;19.25;;;;;;;1.73;84.37;100200.64;1736997;80;21401;-68
2020/12/17 17:59:01;;;;;;;32.15;18.70;;;;;;;1.75;84.46;100205.50;1721230;82;21146;-68
2020/12/17 18:01:32;;;;;;;32.05;18.55;;;;;;;1.76;84.49;100200.77;1724814;82;21133;-69
2020/12/17 18:04:03;;;;;;;35.17;19.32;;;;;;;1.79;84.46;100203.52;1784085;79;21054;-68
2020/12/17 18:06:35;;;;;;;34.95;18.82;;;;;;;1.81;84.47;100207.48;1784147;79;20920;-67
2020/12/17 18:09:08;;;;;;;30.88;17.57;;;;;;;1.81;84.46;100207.08;1784561;79;21265;-68
2020/12/17 18:11:40;;;;;;;31.57;18.05;;;;;;;1.81;84.47;100207.08;1722146;81;21602;-69
2020/12/17 18:16:52;;;;;;;29.95;17.20;;;;;;;1.89;84.51;100205.75;1836921;78;22716;-68
2020/12/17 18:19:22;;;;;;;25.45;15.60;;;;;;;1.87;84.52;100210.37;1809271;78;21172;-69
2020/12/17 18:21:51;;;;;;;28.32;15.58;;;;;;;1.88;84.49;100209.13;1809209;78;21582;-70
2020/12/17 18:24:20;;;;;;;25.30;15.65;;;;;;;1.86;84.40;100213.79;1809236;79;21560;-70
2020/12/17 18:26:50;;;;;;;24.00;13.93;;;;;;;1.76;84.31;100215.08;1806738;77;21057;-70
2020/12/17 18:29:20;;;;;;;25.95;12.28;;;;;;;1.66;84.39;100210.69;1792441;79;20876;-69
2020/12/17 18:31:50;;;;;;;18.75;12.88;;;;;;;1.62;84.49;100207.47;1777359;79;21476;-70
2020/12/17 18:34:27;;;;;;;22.27;14.20;;;;;;;1.58;84.58;100203.84;1796209;79;21360;-71
2020/12/17 18:36:54;;;;;;;21.02;12.88;;;;;;;1.53;84.65;100204.92;1797781;79;21599;-70
2020/12/17 18:39:24;;;;;;;21.50;12.90;;;;;;;1.49;84.74;100203.41;1802936;78;20987;-71
2020/12/17 18:41:55;;;;;;;24.82;12.60;;;;;;;1.45;84.83;100203.68;1730680;82;20991;-71
2020/12/17 18:44:41;;;;;;;22.55;13.53;;;;;;;1.40;84.92;100193.85;1747402;80;21093;-70
2020/12/17 18:47:13;;;;;;;21.23;13.57;;;;;;;1.39;85.01;100198.57;1719913;81;21211;-69
2020/12/17 18:49:46;;;;;;;19.98;13.80;;;;;;;1.37;85.12;100201.09;1715114;83;21408;-71
2020/12/17 18:52:14;;;;;;;19.77;12.95;;;;;;;1.28;85.20;100197.17;1715042;83;21018;-70
2020/12/17 18:54:44;;;;;;;18.77;13.05;;;;;;;1.17;85.33;100198.86;1715237;83;21066;-69
2020/12/17 18:57:13;;;;;;;19.15;13.03;;;;;;;1.15;85.50;100197.00;1715273;83;21589;-68
2020/12/17 18:59:44;;;;;;;18.67;12.55;;;;;;;1.12;85.64;100202.95;1715065;82;21047;-70
2020/12/17 19:02:15;;;;;;;20.40;13.43;;;;;;;1.09;85.79;100203.21;1711115;82;20999;-68
2020/12/17 19:04:44;;;;;;;19.70;11.78;;;;;;;1.07;85.95;100197.05;1753183;80;21017;-69
2020/12/17 19:07:13;;;;;;;21.62;12.95;;;;;;;1.07;86.08;100194.05;1754966;80;21623;-69
2020/12/17 19:09:44;;;;;;;19.55;11.80;;;;;;;1.10;86.17;100198.09;1754958;80;21231;-70
2020/12/17 19:12:14;;;;;;;18.23;12.33;;;;;;;1.11;86.22;100202.87;1754969;81;21270;-70
2020/12/17 19:14:46;;;;;;;17.17;11.12;;;;;;;1.10;86.27;100205.88;1754750;80;21089;-70
2020/12/17 19:17:15;;;;;;;15.20;10.13;;;;;;;1.06;86.30;100212.16;1754917;81;21049;-70
2020/12/17 19:19:45;;;;;;;14.85;9.88;;;;;;;1.00;86.36;100206.25;1754969;80;20998;-70
2020/12/17 19:22:14;;;;;;;14.18;9.45;;;;;;;0.94;86.45;100206.81;1754949;80;20970;-70
2020/12/17 19:24:44;;;;;;;15.20;9.93;;;;;;;0.92;86.55;100214.05;1727818;80;21580;-69
2020/12/17 19:29:58;;;;;;;16.42;9.43;;;;;;;0.85;86.79;100210.67;1841680;77;22719;-69
2020/12/17 19:32:30;;;;;;;14.18;10.13;;;;;;;0.79;86.90;100211.27;1807614;77;21672;-69
2020/12/17 19:34:59;;;;;;;15.80;10.48;;;;;;;0.79;87.05;100208.66;1805048;78;21194;-70
2020/12/17 19:37:29;;;;;;;15.00;10.18;;;;;;;0.76;87.13;100204.62;1807468;78;20981;-70
2020/12/17 19:40:00;;;;;;;16.55;9.85;;;;;;;0.78;87.30;100204.28;1741032;81;20998;-70
2020/12/17 19:42:29;;;;;;;15.63;9.83;;;;;;;0.79;87.35;100208.66;1748447;81;20888;-70
2020/12/17 19:44:59;;;;;;;12.95;9.05;;;;;;;0.81;87.46;100204.84;1743087;81;20970;-70
2020/12/17 19:47:28;;;;;;;12.85;9.33;;;;;;;0.82;87.51;100202.32;1734708;81;21208;-69
2020/12/17 19:49:57;;;;;;;13.48;9.00;;;;;;;0.85;87.58;100205.06;1734350;81;21634;-69
2020/12/17 19:52:28;;;;;;;14.25;8.78;;;;;;;0.87;87.66;100204.73;1735782;81;21014;-69
2020/12/17 19:54:57;;;;;;;13.38;8.83;;;;;;;0.90;87.70;100205.30;1746709;81;21011;-71
2020/12/17 19:57:25;;;;;;;16.17;8.00;;;;;;;0.96;87.79;100209.93;1742600;81;21559;-70
2020/12/17 19:59:55;;;;;;;11.30;8.28;;;;;;;1.00;87.80;100209.27;1789191;79;22249;-71
2020/12/17 20:02:26;;;;;;;13.55;8.73;;;;;;;1.02;87.79;100204.62;1778590;79;21176;-70
2020/12/17 20:04:55;;;;;;;13.38;8.15;;;;;;;1.04;87.78;100201.69;1781629;79;21025;-72
2020/12/17 20:07:25;;;;;;;11.18;7.12;;;;;;;1.04;87.76;100198.20;1735614;82;21219;-70
2020/12/17 20:09:56;;;;;;;11.95;7.85;;;;;;;1.06;87.76;100193.56;1744215;81;21078;-69
2020/12/17 20:12:28;;;;;;;10.63;7.62;;;;;;;1.10;87.78;100196.78;1747174;81;21035;-69
2020/12/17 20:14:59;;;;;;;12.65;8.45;;;;;;;1.12;87.79;100201.65;1747397;80;21647;-70
2020/12/17 20:17:28;;;;;;;13.13;8.35;;;;;;;1.12;87.75;100208.55;1740268;81;21003;-70
2020/12/17 20:19:58;;;;;;;10.72;8.23;;;;;;;1.05;87.69;100202.17;1746493;81;21140;-70
2020/12/17 20:22:28;;;;;;;10.28;7.50;;;;;;;0.96;87.66;100200.42;1739712;81;21133;-70
2020/12/17 20:24:58;;;;;;;11.83;8.43;;;;;;;0.94;87.77;100200.32;1742270;81;21366;-70
2020/12/17 20:27:27;;;;;;;9.80;7.67;;;;;;;0.97;87.86;100199.61;1739420;82;21126;-70